Time;durP1;ratioP1;P1;durP2;ratioP2;P2;SDS_P1;SDS_P2;PMS_P1;PMS_P2;Temp;Humidity;BMP_temperature;BMP_pressure;BME280_temperature;BME280_humidity;BME280_pressure;Samples;Min_cycle;Max_cycle;Signal;HPM_P1;HPM_P2
2024/01/15 00:00:43;;;;;;;5.03;0.75;;;1.60;99.90;;;;;;5028530;28;20029;-90
2024/01/15 00:03:09;;;;;;;7.75;1.70;;;1.60;99.90;;;;;;5018766;28;20033;-88
2024/01/15 00:05:35;;;;;;;4.43;0.90;;;1.50;99.90;;;;;;5028887;28;20025;-89
2024/01/15 00:08:00;;;;;;;3.85;0.85;;;1.50;99.90;;;;;;5031576;28;20030;-89
2024/01/15 00:10:26;;;;;;;5.35;0.80;;;1.50;99.90;;;;;;5030794;28;20021;-89
2024/01/15 00:12:52;;;;;;;6.05;0.43;;;1.40;99.90;;;;;;5025588;28;20022;-88
2024/01/15 00:15:17;;;;;;;2.75;0.30;;;1.30;99.90;;;;;;5027875;28;20041;-90
2024/01/15 00:17:43;;;;;;;2.58;0.40;;;1.30;99.90;;;;;;5017424;28;20105;-90
2024/01/15 00:20:09;;;;;;;3.10;0.50;;;1.30;99.90;;;;;;5030187;28;20038;-90
2024/01/15 00:22:35;;;;;;;4.00;0.50;;;1.30;99.90;;;;;;5034075;28;20061;-90
2024/01/15 00:25:01;;;;;;;3.85;0.70;;;1.30;99.90;;;;;;5035930;28;20030;-90
2024/01/15 00:27:27;;;;;;;4.40;0.90;;;1.30;99.90;;;;;;5022837;28;20030;-91
2024/01/15 00:29:54;;;;;;;6.45;0.80;;;1.20;99.90;;;;;;5017533;28;20459;-91
2024/01/15 00:32:20;;;;;;;10.70;1.33;;;1.30;99.90;;;;;;5028088;28;20492;-91
2024/01/15 00:34:45;;;;;;;7.22;1.83;;;1.20;99.90;;;;;;5027338;28;20092;-91
2024/01/15 00:37:11;;;;;;;6.65;1.88;;;1.30;99.90;;;;;;5033266;28;20029;-91
2024/01/15 00:39:37;;;;;;;4.43;1.25;;;1.20;99.90;;;;;;5034451;28;20047;-90
2024/01/15 00:42:02;;;;;;;6.88;1.33;;;1.20;99.90;;;;;;5035267;28;20116;-91
2024/01/15 00:44:28;;;;;;;6.15;1.85;;;1.20;99.90;;;;;;5033722;28;20059;-91
2024/01/15 00:46:54;;;;;;;5.32;1.80;;;1.20;99.90;;;;;;5032174;28;20466;-91
2024/01/15 00:49:19;;;;;;;5.20;2.50;;;1.20;99.90;;;;;;5031011;28;20168;-91
2024/01/15 00:51:45;;;;;;;6.75;2.45;;;1.20;99.90;;;;;;5032645;28;20036;-91
2024/01/15 00:54:10;;;;;;;5.13;2.38;;;1.10;99.90;;;;;;5026203;28;20033;-90
2024/01/15 00:56:36;;;;;;;7.55;2.50;;;1.10;99.90;;;;;;5031143;28;20080;-91
2024/01/15 00:59:02;;;;;;;7.50;2.13;;;1.10;99.90;;;;;;5028352;28;20116;-90
2024/01/15 01:01:28;;;;;;;6.45;2.05;;;1.10;99.90;;;;;;5026447;28;20030;-90
2024/01/15 01:03:53;;;;;;;7.57;2.42;;;1.10;99.90;;;;;;5032312;28;20029;-91
2024/01/15 01:06:19;;;;;;;6.47;2.35;;;1.10;99.90;;;;;;5027653;28;20017;-89
2024/01/15 01:08:44;;;;;;;7.63;2.05;;;1.10;99.90;;;;;;5029226;28;20045;-88
2024/01/15 01:11:14;;;;;;;7.63;3.47;;;1.10;99.90;;;;;;5032238;28;20025;-89
2024/01/15 01:13:40;;;;;;;10.07;2.78;;;1.10;99.90;;;;;;5018783;28;20025;-89
2024/01/15 01:16:05;;;;;;;4.43;1.77;;;1.10;99.90;;;;;;5030279;28;20492;-90
2024/01/15 01:18:31;;;;;;;11.07;2.65;;;1.10;99.90;;;;;;5033982;28;20033;-90
2024/01/15 01:20:57;;;;;;;8.23;1.80;;;1.10;99.90;;;;;;5031083;28;20139;-89
2024/01/15 01:23:22;;;;;;;5.53;1.98;;;1.10;99.90;;;;;;5029181;28;20525;-89
2024/01/15 01:25:48;;;;;;;9.15;2.15;;;1.00;99.90;;;;;;5019535;28;20040;-89
2024/01/15 01:28:14;;;;;;;5.88;2.72;;;1.00;99.90;;;;;;5020749;28;20477;-89
2024/01/15 01:30:39;;;;;;;5.20;1.35;;;1.00;99.90;;;;;;5018775;28;20026;-90
2024/01/15 01:33:05;;;;;;;4.45;1.48;;;1.00;99.90;;;;;;5023114;28;20026;-89
2024/01/15 01:35:30;;;;;;;11.05;1.55;;;1.00;99.90;;;;;;5028227;28;20058;-89
2024/01/15 01:37:56;;;;;;;8.75;1.05;;;1.00;99.90;;;;;;5032784;28;20491;-89
2024/01/15 01:40:21;;;;;;;10.52;1.50;;;1.10;99.90;;;;;;5025595;28;20112;-88
2024/01/15 01:42:48;;;;;;;9.80;2.42;;;1.10;99.90;;;;;;5030845;28;20021;-89
2024/01/15 01:45:14;;;;;;;8.02;1.00;;;1.10;99.90;;;;;;5027137;28;20030;-89
2024/01/15 01:47:40;;;;;;;5.90;0.75;;;1.10;99.90;;;;;;5026053;28;20481;-89
2024/01/15 01:50:06;;;;;;;6.78;0.80;;;1.10;99.90;;;;;;5028864;28;20045;-89
2024/01/15 01:52:32;;;;;;;7.95;1.50;;;1.10;99.90;;;;;;5026062;28;20113;-89
2024/01/15 01:55:01;;;;;;;7.35;0.80;;;1.00;99.90;;;;;;5032265;28;20413;-89
2024/01/15 01:57:26;;;;;;;6.65;1.05;;;1.00;99.90;;;;;;5033246;28;20017;-89
2024/01/15 01:59:53;;;;;;;6.03;0.68;;;1.00;99.90;;;;;;5032683;28;20517;-90
2024/01/15 02:02:19;;;;;;;10.52;1.33;;;0.90;99.90;;;;;;5023570;28;20037;-90
2024/01/15 02:04:48;;;;;;;6.30;0.80;;;0.90;99.90;;;;;;5025432;28;20053;-91
2024/01/15 02:07:16;;;;;;;12.07;1.10;;;1.00;99.90;;;;;;5020478;28;20091;-90
2024/01/15 02:09:41;;;;;;;6.95;1.25;;;1.00;99.90;;;;;;5029470;28;20470;-90
2024/01/15 02:12:07;;;;;;;4.70;0.82;;;1.00;99.90;;;;;;5032493;28;20021;-91
2024/01/15 02:14:33;;;;;;;8.18;1.63;;;1.00;99.90;;;;;;5025678;28;20084;-89
2024/01/15 02:16:58;;;;;;;6.00;1.02;;;1.00;99.90;;;;;;5018780;28;20135;-90
2024/01/15 02:19:24;;;;;;;16.73;2.03;;;1.00;99.90;;;;;;5022600;28;20025;-89
2024/01/15 02:21:49;;;;;;;9.55;0.77;;;1.00;99.90;;;;;;5033316;28;20029;-90
2024/01/15 02:24:15;;;;;;;6.18;0.55;;;1.00;99.90;;;;;;5024679;28;20034;-91
2024/01/15 02:26:41;;;;;;;15.02;0.80;;;1.10;99.90;;;;;;5025332;28;20083;-91
2024/01/15 02:29:10;;;;;;;8.23;1.00;;;1.10;99.90;;;;;;5023995;28;20095;-90
2024/01/15 02:31:36;;;;;;;9.73;0.60;;;1.20;99.90;;;;;;5027600;28;20025;-90
2024/01/15 02:34:02;;;;;;;9.07;1.15;;;1.20;99.90;;;;;;5031165;28;20033;-89
2024/01/15 02:36:27;;;;;;;9.82;0.95;;;1.20;99.90;;;;;;5027735;28;20032;-90
2024/01/15 02:38:53;;;;;;;8.70;0.98;;;1.20;99.90;;;;;;5025650;28;20486;-90
2024/01/15 02:41:18;;;;;;;12.63;2.33;;;1.20;99.90;;;;;;5015177;28;20040;-90
2024/01/15 02:43:44;;;;;;;6.10;0.60;;;1.20;99.90;;;;;;5032170;28;20024;-90
2024/01/15 02:46:10;;;;;;;9.48;1.17;;;1.20;99.90;;;;;;5020665;28;20080;-91
2024/01/15 02:48:35;;;;;;;14.98;1.05;;;1.10;99.90;;;;;;5026677;28;20116;-90
2024/01/15 02:51:02;;;;;;;5.07;0.88;;;1.20;99.90;;;;;;5015159;28;20089;-92
2024/01/15 02:53:27;;;;;;;10.43;0.80;;;1.20;99.90;;;;;;5030444;28;20021;-90
2024/01/15 02:55:53;;;;;;;8.38;0.73;;;1.10;99.90;;;;;;5023272;28;20075;-91
2024/01/15 02:58:18;;;;;;;5.82;0.55;;;1.10;99.90;;;;;;5024617;28;20030;-90
2024/01/15 03:00:44;;;;;;;17.15;1.33;;;1.10;99.90;;;;;;5032762;28;20025;-90
2024/01/15 03:03:10;;;;;;;11.15;1.00;;;1.10;99.90;;;;;;5031382;28;20485;-91
2024/01/15 03:05:35;;;;;;;9.07;0.77;;;1.10;99.90;;;;;;5031553;28;20033;-90
2024/01/15 03:08:01;;;;;;;11.40;0.80;;;1.00;99.90;;;;;;5027963;28;20080;-91
2024/01/15 03:10:26;;;;;;;4.70;0.90;;;1.10;99.90;;;;;;5015478;28;20085;-90
2024/01/15 03:12:52;;;;;;;6.50;0.60;;;1.10;99.90;;;;;;5020940;28;20048;-91
2024/01/15 03:15:18;;;;;;;7.55;1.20;;;1.10;99.90;;;;;;5018777;28;20038;-90
2024/01/15 03:17:44;;;;;;;5.00;0.60;;;1.10;99.90;;;;;;5029179;28;20032;-90
2024/01/15 03:20:10;;;;;;;3.13;0.60;;;1.20;99.90;;;;;;5022865;28;20037;-90
2024/01/15 03:22:36;;;;;;;5.85;0.70;;;1.20;99.90;;;;;;5020788;28;20121;-90
2024/01/15 03:25:01;;;;;;;6.47;1.08;;;1.20;99.90;;;;;;5024150;28;20101;-90
2024/01/15 03:27:27;;;;;;;11.20;1.10;;;1.30;99.90;;;;;;5030734;28;20071;-90
2024/01/15 03:29:52;;;;;;;5.55;0.70;;;1.30;99.90;;;;;;5031317;28;20097;-90
2024/01/15 03:32:19;;;;;;;9.00;0.63;;;1.30;99.90;;;;;;5031697;28;20041;-91
2024/01/15 03:34:45;;;;;;;6.85;0.68;;;1.30;99.90;;;;;;5031113;28;20046;-91
2024/01/15 03:37:12;;;;;;;4.43;0.63;;;1.30;99.90;;;;;;5031494;28;20018;-90
2024/01/15 03:39:38;;;;;;;16.80;1.45;;;1.20;99.90;;;;;;5025397;28;20033;-90
2024/01/15 03:42:03;;;;;;;10.52;0.80;;;1.20;99.90;;;;;;5012675;28;20371;-89
2024/01/15 03:44:29;;;;;;;7.28;0.55;;;1.20;99.90;;;;;;5029116;28;20116;-90
2024/01/15 03:46:55;;;;;;;6.18;0.50;;;1.20;99.90;;;;;;5031571;28;20072;-89
2024/01/15 03:49:20;;;;;;;7.28;0.50;;;1.10;99.90;;;;;;5030421;28;20033;-90
2024/01/15 03:51:46;;;;;;;8.07;0.65;;;1.10;99.90;;;;;;5029588;28;20072;-89
2024/01/15 03:54:11;;;;;;;10.13;1.10;;;1.10;99.90;;;;;;5027492;28;20037;-90
2024/01/15 03:56:37;;;;;;;13.23;0.90;;;1.10;99.90;;;;;;5031388;28;20021;-90
2024/01/15 03:59:03;;;;;;;8.57;0.50;;;1.10;99.90;;;;;;5028151;28;20032;-89
2024/01/15 04:01:29;;;;;;;18.90;0.82;;;1.10;99.90;;;;;;5032921;28;20033;-89
2024/01/15 04:03:55;;;;;;;7.03;0.45;;;1.00;99.90;;;;;;5034961;28;20137;-91
2024/01/15 04:06:20;;;;;;;7.28;0.55;;;1.00;99.90;;;;;;5029004;28;20449;-89
2024/01/15 04:08:46;;;;;;;8.45;0.50;;;1.00;99.90;;;;;;5030418;28;20037;-90
2024/01/15 04:11:11;;;;;;;11.90;0.60;;;1.00;99.90;;;;;;5028349;28;20022;-90
2024/01/15 04:13:37;;;;;;;8.15;0.30;;;1.00;99.90;;;;;;5043712;28;20395;-90
2024/01/15 04:16:03;;;;;;;11.40;0.60;;;1.00;99.90;;;;;;5039991;28;20029;-90
2024/01/15 04:18:29;;;;;;;5.82;0.40;;;1.10;99.90;;;;;;5034841;28;20025;-91
2024/01/15 04:20:54;;;;;;;4.50;0.65;;;1.10;99.90;;;;;;5028356;28;20029;-90
2024/01/15 04:23:20;;;;;;;8.93;0.63;;;1.10;99.90;;;;;;5034429;28;20029;-90
2024/01/15 04:25:45;;;;;;;2.38;0.30;;;1.10;99.90;;;;;;5034126;28;20116;-90
2024/01/15 04:28:12;;;;;;;3.95;0.30;;;1.10;99.90;;;;;;5026254;28;20144;-90
2024/01/15 04:30:37;;;;;;;7.65;0.32;;;1.10;99.90;;;;;;5033755;28;20091;-90
2024/01/15 04:33:03;;;;;;;9.57;0.52;;;1.10;99.90;;;;;;5032831;28;20017;-90
2024/01/15 04:35:29;;;;;;;4.45;0.70;;;1.10;99.90;;;;;;5023836;28;20413;-90
2024/01/15 04:37:55;;;;;;;11.82;0.60;;;1.20;99.90;;;;;;5021115;28;20033;-90
2024/01/15 04:40:20;;;;;;;6.95;0.55;;;1.20;99.90;;;;;;5032275;28;20393;-91
2024/01/15 04:42:46;;;;;;;6.20;0.30;;;1.20;99.90;;;;;;5033043;28;20095;-90
2024/01/15 04:45:12;;;;;;;8.35;0.40;;;1.30;99.90;;;;;;5033444;28;20036;-90
2024/01/15 04:47:37;;;;;;;14.93;0.68;;;1.30;99.90;;;;;;5034641;28;20123;-92
2024/01/15 04:50:04;;;;;;;5.60;0.30;;;1.20;99.90;;;;;;5032050;28;20094;-91
2024/01/15 04:52:30;;;;;;;5.68;0.30;;;1.20;99.90;;;;;;5029658;28;20108;-91
2024/01/15 04:54:55;;;;;;;6.07;0.60;;;1.30;99.90;;;;;;5034323;28;20474;-90
2024/01/15 04:57:21;;;;;;;9.02;0.73;;;1.30;99.90;;;;;;5034057;28;20032;-90
2024/01/15 04:59:46;;;;;;;4.75;0.50;;;1.30;99.90;;;;;;5030257;28;20401;-90
2024/01/15 05:02:12;;;;;;;5.85;0.40;;;1.30;99.90;;;;;;5026936;28;20018;-92
2024/01/15 05:04:37;;;;;;;7.57;0.45;;;1.30;99.90;;;;;;5031980;28;20421;-92
2024/01/15 05:07:03;;;;;;;6.75;0.52;;;1.20;99.90;;;;;;5033445;28;20021;-90
2024/01/15 05:09:28;;;;;;;7.15;0.85;;;1.20;99.90;;;;;;5031706;28;20044;-91
2024/01/15 05:11:54;;;;;;;15.13;1.10;;;1.20;99.90;;;;;;5034287;28;20047;-92
2024/01/15 05:14:20;;;;;;;9.93;0.60;;;1.10;99.90;;;;;;5029974;28;20026;-92
2024/01/15 05:16:49;;;;;;;5.72;0.55;;;1.10;99.90;;;;;;5028385;28;20022;-91
2024/01/15 05:19:15;;;;;;;8.95;0.70;;;1.00;99.90;;;;;;5031558;28;20116;-92
2024/01/15 05:21:40;;;;;;;5.70;0.60;;;1.00;99.90;;;;;;5033398;28;20116;-91
2024/01/15 05:24:07;;;;;;;4.72;0.50;;;1.00;99.90;;;;;;5029372;28;20112;-91
2024/01/15 05:26:33;;;;;;;4.07;0.73;;;1.00;99.90;;;;;;5033858;28;20026;-90
2024/01/15 05:28:59;;;;;;;7.85;0.73;;;1.00;99.90;;;;;;5030901;28;20060;-91
2024/01/15 05:31:24;;;;;;;5.75;0.70;;;1.00;99.90;;;;;;5021582;28;20389;-91
2024/01/15 05:33:50;;;;;;;8.13;0.90;;;0.90;99.90;;;;;;5032859;28;20037;-92
2024/01/15 05:36:15;;;;;;;8.00;0.90;;;0.90;99.90;;;;;;5034211;28;20079;-92
2024/01/15 05:38:41;;;;;;;11.07;0.77;;;0.90;99.90;;;;;;5024183;28;20022;-89
2024/01/15 05:41:07;;;;;;;10.88;0.90;;;0.90;99.90;;;;;;5018301;28;20135;-89
2024/01/15 05:43:32;;;;;;;9.50;1.45;;;1.00;99.90;;;;;;5034688;28;20025;-90
2024/01/15 05:45:58;;;;;;;6.03;0.60;;;1.00;99.90;;;;;;5030760;28;20481;-91
2024/01/15 05:48:23;;;;;;;7.70;1.00;;;1.00;99.90;;;;;;5029454;28;20096;-91
2024/01/15 05:50:49;;;;;;;4.15;0.70;;;1.10;99.90;;;;;;5031370;28;20028;-91
2024/01/15 05:53:15;;;;;;;3.38;1.02;;;1.10;99.90;;;;;;5031997;28;20100;-91
2024/01/15 05:55:40;;;;;;;4.07;1.33;;;1.10;99.90;;;;;;5028494;28;20021;-92
2024/01/15 05:58:06;;;;;;;4.13;0.90;;;1.20;99.90;;;;;;5028159;28;20105;-92
2024/01/15 06:00:35;;;;;;;7.03;1.83;;;1.20;99.90;;;;;;5026888;28;20124;-93
2024/01/15 06:03:01;;;;;;;10.30;2.00;;;1.10;99.90;;;;;;5022926;28;20380;-92
2024/01/15 06:05:27;;;;;;;8.52;1.42;;;1.10;99.90;;;;;;5029607;28;20029;-93
2024/01/15 06:07:53;;;;;;;8.25;1.88;;;1.00;99.90;;;;;;5028681;28;20018;-93
2024/01/15 06:10:18;;;;;;;3.05;1.40;;;1.00;99.90;;;;;;5022799;28;20037;-93
2024/01/15 06:12:44;;;;;;;3.08;1.15;;;0.90;99.90;;;;;;5032129;28;20045;-92
2024/01/15 06:15:10;;;;;;;5.97;1.35;;;1.00;99.90;;;;;;5027656;28;20022;-93
2024/01/15 06:17:36;;;;;;;3.83;0.90;;;1.00;99.90;;;;;;5028726;28;20155;-94
2024/01/15 06:20:03;;;;;;;5.78;1.05;;;1.00;99.90;;;;;;5033122;28;20028;-93
2024/01/15 06:22:28;;;;;;;3.92;1.35;;;1.00;99.90;;;;;;5027853;28;20029;-94
2024/01/15 06:24:55;;;;;;;4.07;1.20;;;1.00;99.90;;;;;;5025549;28;20022;-92
2024/01/15 06:27:21;;;;;;;8.52;1.48;;;0.90;99.90;;;;;;5024763;28;20022;-92
2024/01/15 06:29:47;;;;;;;3.72;1.00;;;0.90;99.90;;;;;;5032049;28;20048;-92
2024/01/15 06:32:13;;;;;;;8.65;1.23;;;0.90;99.90;;;;;;5026428;28;20089;-91
2024/01/15 06:34:39;;;;;;;5.97;1.00;;;0.90;99.90;;;;;;5016602;28;20073;-90
2024/01/15 06:37:04;;;;;;;5.00;1.17;;;0.90;99.90;;;;;;5022223;28;20022;-92
2024/01/15 06:39:30;;;;;;;4.15;1.60;;;0.90;99.90;;;;;;5018717;28;20186;-93
2024/01/15 06:41:56;;;;;;;5.22;1.45;;;0.90;99.90;;;;;;5024322;28;20417;-93
2024/01/15 06:44:21;;;;;;;5.15;2.13;;;1.00;99.90;;;;;;5026089;28;20033;-92
2024/01/15 06:46:47;;;;;;;7.78;2.92;;;1.00;99.90;;;;;;5020977;28;20026;-92
2024/01/15 06:49:13;;;;;;;6.97;2.38;;;1.10;99.90;;;;;;5024618;28;20033;-92
2024/01/15 06:51:39;;;;;;;6.38;3.03;;;1.10;99.90;;;;;;5019054;28;20040;-94
2024/01/15 06:54:05;;;;;;;4.35;2.38;;;1.20;99.90;;;;;;5025515;28;20208;-91
2024/01/15 06:56:31;;;;;;;5.97;3.17;;;1.20;99.90;;;;;;5024989;28;20112;-90
2024/01/15 06:58:57;;;;;;;5.78;3.15;;;1.20;99.90;;;;;;5025998;28;20116;-91
2024/01/15 07:01:23;;;;;;;7.38;3.90;;;1.20;99.90;;;;;;5029102;28;20113;-91
2024/01/15 07:03:49;;;;;;;6.88;3.47;;;1.20;99.90;;;;;;5028056;28;20032;-93
2024/01/15 07:06:15;;;;;;;8.63;3.15;;;1.10;99.90;;;;;;5023068;28;20374;-93
2024/01/15 07:08:41;;;;;;;6.03;2.85;;;1.20;99.90;;;;;;5022274;28;20071;-93
2024/01/15 07:11:07;;;;;;;5.18;3.30;;;1.10;99.90;;;;;;5033553;28;20452;-91
2024/01/15 07:13:33;;;;;;;7.00;3.20;;;1.10;99.90;;;;;;5032122;28;20477;-93
2024/01/15 07:15:59;;;;;;;4.30;2.90;;;1.10;99.90;;;;;;5024819;28;20065;-93
2024/01/15 07:18:25;;;;;;;5.13;2.90;;;1.10;99.90;;;;;;5027798;28;20041;-92
2024/01/15 07:20:51;;;;;;;5.22;2.65;;;1.10;99.90;;;;;;5029496;28;20022;-92
2024/01/15 07:23:17;;;;;;;5.57;3.15;;;1.00;99.90;;;;;;5032369;28;20030;-91
2024/01/15 07:25:42;;;;;;;7.45;3.30;;;1.10;99.90;;;;;;5021895;28;20524;-91
2024/01/15 07:28:08;;;;;;;7.95;3.40;;;1.00;99.90;;;;;;5027466;28;20192;-91
2024/01/15 07:30:34;;;;;;;9.48;3.72;;;1.00;99.90;;;;;;5032775;28;20428;-90
2024/01/15 07:32:59;;;;;;;8.75;3.63;;;1.00;99.90;;;;;;5026433;28;20026;-91
2024/01/15 07:35:25;;;;;;;8.25;4.60;;;1.00;99.90;;;;;;5027467;28;20141;-91
2024/01/15 07:37:50;;;;;;;5.57;3.88;;;1.00;99.90;;;;;;5030031;28;20457;-91
2024/01/15 07:40:16;;;;;;;8.23;4.53;;;1.00;99.90;;;;;;5035328;28;20033;-91
2024/01/15 07:42:45;;;;;;;9.68;5.78;;;1.00;99.90;;;;;;5026016;28;20033;-91
2024/01/15 07:45:11;;;;;;;10.40;5.10;;;0.90;99.90;;;;;;5028893;28;20405;-92
2024/01/15 07:47:36;;;;;;;9.98;4.80;;;0.90;99.90;;;;;;5027254;28;20028;-91
2024/01/15 07:50:02;;;;;;;9.35;4.95;;;0.90;99.90;;;;;;5025048;28;20053;-90
2024/01/15 07:52:28;;;;;;;7.60;4.00;;;0.90;99.90;;;;;;5023523;28;20025;-91
2024/01/15 07:54:54;;;;;;;7.20;3.50;;;0.90;99.90;;;;;;5029546;28;20057;-90
2024/01/15 07:57:20;;;;;;;8.15;4.30;;;0.90;99.90;;;;;;5023557;28;20030;-90
2024/01/15 07:59:46;;;;;;;5.65;2.50;;;1.00;99.90;;;;;;5025802;28;20388;-91
2024/01/15 08:02:11;;;;;;;6.53;1.90;;;1.00;99.90;;;;;;5034492;28;20029;-92
2024/01/15 08:04:38;;;;;;;4.70;1.10;;;1.00;99.90;;;;;;5030579;28;20056;-94
2024/01/15 08:07:05;;;;;;;3.88;1.08;;;1.00;99.90;;;;;;5036300;28;20519;-95
2024/01/15 08:09:31;;;;;;;6.80;2.67;;;0.90;99.90;;;;;;5030332;28;20489;-94
2024/01/15 08:11:56;;;;;;;2.20;0.80;;;0.80;99.90;;;;;;5030564;28;20033;-94
2024/01/15 08:14:22;;;;;;;2.65;0.77;;;0.80;99.90;;;;;;5033304;28;20036;-92
2024/01/15 08:16:48;;;;;;;4.43;1.30;;;0.80;99.90;;;;;;5030869;28;20037;-95
2024/01/15 08:19:14;;;;;;;6.03;1.30;;;0.80;99.90;;;;;;5033959;28;20033;-93
2024/01/15 08:21:40;;;;;;;5.55;1.48;;;0.80;99.90;;;;;;5033971;28;20093;-91
2024/01/15 08:24:05;;;;;;;5.30;1.75;;;0.80;99.90;;;;;;5028320;28;20083;-93
2024/01/15 08:26:32;;;;;;;6.25;1.80;;;0.80;99.90;;;;;;5016074;28;20022;-94
2024/01/15 08:28:59;;;;;;;6.05;1.92;;;0.80;99.90;;;;;;5034196;28;20054;-93
2024/01/15 08:31:24;;;;;;;5.60;2.03;;;0.90;99.90;;;;;;5025498;28;20013;-93
2024/01/15 08:33:50;;;;;;;6.93;2.38;;;0.90;99.90;;;;;;5034859;28;20030;-94
2024/01/15 08:36:16;;;;;;;6.35;1.95;;;0.90;99.90;;;;;;5034806;28;20049;-95
2024/01/15 08:38:42;;;;;;;7.03;2.78;;;0.90;99.90;;;;;;5036268;28;20021;-94
2024/01/15 08:41:08;;;;;;;7.60;2.00;;;0.90;99.90;;;;;;5033563;28;20053;-94
2024/01/15 08:43:34;;;;;;;8.85;2.88;;;0.90;99.90;;;;;;5032554;28;20116;-96
2024/01/15 08:46:00;;;;;;;5.47;1.27;;;0.90;99.90;;;;;;5029702;28;20076;-93
2024/01/15 08:48:29;;;;;;;5.00;1.42;;;0.90;99.90;;;;;;5028597;28;20066;-94
2024/01/15 08:50:55;;;;;;;3.53;0.88;;;0.90;99.90;;;;;;5019326;28;20022;-95
2024/01/15 08:53:21;;;;;;;7.03;1.00;;;0.90;99.90;;;;;;5026178;28;20120;-95
2024/01/15 08:55:47;;;;;;;7.65;0.63;;;0.90;99.90;;;;;;5024605;28;20108;-94
2024/01/15 08:58:13;;;;;;;7.13;0.50;;;1.00;99.90;;;;;;5028270;28;20108;-90
2024/01/15 09:00:39;;;;;;;8.07;0.40;;;1.00;99.90;;;;;;5030922;28;20114;-92
2024/01/15 09:03:04;;;;;;;2.70;0.30;;;1.00;99.90;;;;;;5033185;28;20056;-95
2024/01/15 09:05:30;;;;;;;9.68;0.30;;;1.00;99.90;;;;;;5033016;28;20040;-94
2024/01/15 09:07:56;;;;;;;6.22;0.30;;;1.00;99.90;;;;;;5023645;28;20026;-95
2024/01/15 09:10:22;;;;;;;9.32;0.30;;;1.10;99.90;;;;;;5027115;28;20041;-96
2024/01/15 09:12:49;;;;;;;7.78;0.50;;;1.10;99.90;;;;;;5033751;28;20044;-93
2024/01/15 09:15:15;;;;;;;3.40;0.30;;;1.10;99.90;;;;;;5030336;28;20022;-94
2024/01/15 09:17:40;;;;;;;5.00;0.20;;;1.10;99.90;;;;;;5029458;28;20029;-95
2024/01/15 09:20:07;;;;;;;3.97;0.20;;;1.00;99.90;;;;;;5023885;28;20120;-93
2024/01/15 09:22:32;;;;;;;3.70;0.20;;;1.00;99.90;;;;;;5031028;28;20033;-94
2024/01/15 09:24:58;;;;;;;3.13;0.20;;;1.00;99.90;;;;;;5021532;28;20080;-93
2024/01/15 09:27:26;;;;;;;2.38;0.20;;;1.00;99.90;;;;;;5029473;28;20057;-95
2024/01/15 09:29:52;;;;;;;5.93;0.75;;;1.00;99.90;;;;;;5017607;28;20042;-94
2024/01/15 09:32:18;;;;;;;3.53;0.30;;;0.90;99.90;;;;;;5022544;28;20045;-93
2024/01/15 09:34:46;;;;;;;3.65;0.28;;;1.00;99.90;;;;;;5029606;28;20038;-95
2024/01/15 09:37:12;;;;;;;6.43;0.30;;;1.00;99.90;;;;;;5026426;28;20539;-95
2024/01/15 09:39:38;;;;;;;7.28;0.70;;;1.00;99.90;;;;;;5027727;28;20038;-94
2024/01/15 09:42:04;;;;;;;3.70;0.50;;;1.10;99.90;;;;;;5028818;28;20033;-94
2024/01/15 09:44:30;;;;;;;4.00;0.40;;;1.10;99.90;;;;;;5027681;28;20030;-94
2024/01/15 09:46:57;;;;;;;3.92;1.60;;;1.10;99.90;;;;;;5020276;28;20042;-94
2024/01/15 09:49:23;;;;;;;4.15;0.70;;;1.30;99.90;;;;;;5029796;28;20037;-94
2024/01/15 09:51:49;;;;;;;4.70;0.80;;;1.30;99.90;;;;;;5028462;28;20087;-95
2024/01/15 09:54:17;;;;;;;7.97;1.55;;;1.40;99.90;;;;;;5030690;28;20550;-95
2024/01/15 09:56:46;;;;;;;4.53;2.28;;;1.40;99.90;;;;;;5035957;28;20025;-95
2024/01/15 09:59:15;;;;;;;5.85;2.95;;;1.40;99.90;;;;;;5031379;28;20034;-93
2024/01/15 10:01:41;;;;;;;7.82;4.07;;;1.30;99.90;;;;;;5034569;28;20041;-95
2024/01/15 10:04:07;;;;;;;9.52;4.10;;;1.40;99.90;;;;;;5032323;28;20021;-95
2024/01/15 10:06:33;;;;;;;9.70;5.10;;;1.40;99.90;;;;;;5030375;28;20037;-94
2024/01/15 10:08:59;;;;;;;11.10;5.50;;;1.50;99.90;;;;;;5024245;28;20037;-96
2024/01/15 10:11:25;;;;;;;8.52;5.43;;;1.60;99.90;;;;;;5026775;28;20485;-94
2024/01/15 10:13:53;;;;;;;12.85;6.63;;;1.60;99.90;;;;;;5025095;28;20061;-96
2024/01/15 10:16:19;;;;;;;12.63;7.07;;;1.60;99.90;;;;;;5025948;28;20029;-94
2024/01/15 10:18:45;;;;;;;10.65;7.05;;;1.50;99.90;;;;;;5032762;28;20543;-95
2024/01/15 10:21:10;;;;;;;16.23;7.65;;;1.60;99.90;;;;;;5031005;28;20029;-94
2024/01/15 10:23:36;;;;;;;11.60;6.90;;;1.60;99.90;;;;;;5017911;28;20026;-95
2024/01/15 10:26:05;;;;;;;11.05;6.10;;;1.70;99.90;;;;;;5030885;28;20022;-91
2024/01/15 10:28:31;;;;;;;11.13;6.10;;;1.90;99.90;;;;;;5033321;28;20064;-92
2024/01/15 10:31:01;;;;;;;12.23;5.55;;;1.90;99.90;;;;;;5030748;28;20030;-93
2024/01/15 10:33:27;;;;;;;9.45;4.35;;;1.80;99.90;;;;;;5028429;28;20030;-91
2024/01/15 10:35:57;;;;;;;9.85;3.90;;;1.70;99.90;;;;;;5023651;28;20086;-91
2024/01/15 10:38:24;;;;;;;7.78;3.60;;;1.60;99.90;;;;;;5031477;28;20108;-91
2024/01/15 10:40:54;;;;;;;7.05;3.47;;;1.50;99.90;;;;;;5033294;28;20436;-91
2024/01/15 10:43:21;;;;;;;10.68;2.65;;;1.50;99.90;;;;;;5032456;28;20633;-91
2024/01/15 10:45:51;;;;;;;8.43;3.05;;;1.50;99.90;;;;;;5026510;28;20033;-90
2024/01/15 10:48:19;;;;;;;7.53;1.85;;;1.50;99.90;;;;;;5033124;28;20099;-88
2024/01/15 10:50:46;;;;;;;13.25;1.90;;;1.50;99.90;;;;;;5031628;28;20029;-90
2024/01/15 10:53:13;;;;;;;8.13;1.80;;;1.50;99.90;;;;;;5034959;28;20033;-89
2024/01/15 10:55:41;;;;;;;7.80;1.48;;;1.60;99.90;;;;;;5031674;28;20025;-89
2024/01/15 10:58:07;;;;;;;6.57;1.20;;;1.70;99.90;;;;;;5022707;28;20108;-88
2024/01/15 11:00:37;;;;;;;4.43;1.00;;;1.80;99.90;;;;;;5028680;28;20025;-88
2024/01/15 11:03:07;;;;;;;5.18;0.95;;;1.90;99.90;;;;;;5025796;28;20048;-90
2024/01/15 11:05:41;;;;;;;3.05;0.70;;;1.90;99.90;;;;;;5020156;28;20382;-88
2024/01/15 11:08:07;;;;;;;6.82;0.60;;;2.00;99.90;;;;;;5024929;28;20113;-89
2024/01/15 11:10:46;;;;;;;3.92;0.40;;;2.10;99.90;;;;;;5026489;28;20033;-89
2024/01/15 11:13:44;;;;;;;6.13;0.63;;;2.30;99.90;;;;;;5029036;28;20040;-90
2024/01/15 11:16:12;;;;;;;9.90;0.73;;;2.30;99.90;;;;;;4999925;28;20042;-88
2024/01/15 11:18:42;;;;;;;7.68;0.45;;;2.30;99.90;;;;;;5030208;28;20120;-89
2024/01/15 11:21:16;;;;;;;4.93;0.30;;;2.30;99.90;;;;;;5025001;28;20061;-89
2024/01/15 11:23:46;;;;;;;11.23;0.40;;;2.30;99.90;;;;;;5023056;28;20026;-89
2024/01/15 11:26:27;;;;;;;3.80;0.30;;;2.10;99.90;;;;;;5029585;28;20025;-89
2024/01/15 11:28:54;;;;;;;2.10;0.22;;;2.00;99.90;;;;;;5032310;28;20044;-90
2024/01/15 11:31:20;;;;;;;6.75;0.40;;;2.00;99.90;;;;;;5029962;28;20022;-89
2024/01/15 11:33:52;;;;;;;3.92;0.52;;;1.90;99.90;;;;;;5025696;28;20092;-90
2024/01/15 11:36:17;;;;;;;8.13;0.65;;;2.00;99.90;;;;;;5026434;28;20113;-89
2024/01/15 11:38:43;;;;;;;3.40;0.30;;;2.10;99.90;;;;;;5026071;28;20117;-88
2024/01/15 11:41:15;;;;;;;6.28;0.28;;;2.10;99.90;;;;;;5023604;28;20035;-89
2024/01/15 11:43:42;;;;;;;;;;;2.10;99.90;;;;;;5021265;28;20025;-87
2024/01/15 11:46:12;;;;;;;5.55;0.60;;;2.10;99.90;;;;;;5023186;28;19945;-88
2024/01/15 11:48:47;;;;;;;2.67;0.30;;;2.10;99.90;;;;;;5026817;28;20045;-88
2024/01/15 11:51:13;;;;;;;4.05;0.40;;;2.10;99.90;;;;;;5022805;28;20375;-88
2024/01/15 11:53:48;;;;;;;3.00;0.20;;;2.10;99.90;;;;;;5025880;28;20061;-88
2024/01/15 11:56:17;;;;;;;7.50;0.40;;;2.10;99.90;;;;;;5018038;28;20026;-88
2024/01/15 11:58:44;;;;;;;4.75;0.40;;;2.00;99.90;;;;;;5024178;28;20109;-88
2024/01/15 12:01:11;;;;;;;4.57;0.50;;;1.90;99.90;;;;;;5031731;28;20025;-88
2024/01/15 12:03:37;;;;;;;5.38;0.30;;;1.80;99.90;;;;;;5031396;28;20090;-88
2024/01/15 12:06:06;;;;;;;2.00;0.20;;;1.70;99.90;;;;;;5030890;28;20075;-88
2024/01/15 12:08:32;;;;;;;1.65;0.30;;;1.70;99.90;;;;;;5026586;28;20052;-89
2024/01/15 12:10:58;;;;;;;3.17;0.30;;;1.60;99.90;;;;;;5026968;28;20034;-90
2024/01/15 12:13:23;;;;;;;3.70;0.22;;;1.60;99.90;;;;;;5013576;28;20036;-89
2024/01/15 12:15:50;;;;;;;3.70;0.32;;;1.60;99.90;;;;;;5029244;28;20159;-90
2024/01/15 12:18:18;;;;;;;8.00;0.52;;;1.60;99.90;;;;;;5022524;28;20025;-90
2024/01/15 12:20:46;;;;;;;5.40;0.30;;;1.60;99.90;;;;;;5033346;28;20087;-90
2024/01/15 12:23:13;;;;;;;2.95;0.40;;;1.60;99.90;;;;;;5032668;28;20499;-90
2024/01/15 12:25:39;;;;;;;2.63;0.20;;;1.60;99.90;;;;;;5035314;28;20064;-90
2024/01/15 12:28:05;;;;;;;2.33;0.30;;;1.60;99.90;;;;;;5024376;28;20213;-90
2024/01/15 12:30:32;;;;;;;4.43;0.30;;;1.60;99.90;;;;;;5027794;28;20047;-90
2024/01/15 12:32:58;;;;;;;4.85;0.30;;;1.60;99.90;;;;;;5028960;28;20044;-89
2024/01/15 12:35:26;;;;;;;3.00;0.45;;;1.60;99.90;;;;;;5027041;28;20492;-90
2024/01/15 12:37:51;;;;;;;3.50;0.40;;;1.60;99.90;;;;;;5027519;28;20021;-90
2024/01/15 12:40:21;;;;;;;5.32;0.75;;;1.60;99.90;;;;;;5028806;28;20098;-90
2024/01/15 12:42:46;;;;;;;3.50;0.40;;;1.60;99.90;;;;;;5033632;28;20029;-89
2024/01/15 12:45:13;;;;;;;3.33;0.40;;;1.50;99.90;;;;;;5034505;28;20029;-90
2024/01/15 12:47:42;;;;;;;9.65;0.47;;;1.50;99.90;;;;;;5027822;28;20057;-89
2024/01/15 12:50:10;;;;;;;6.22;0.47;;;1.50;99.90;;;;;;5033744;28;20034;-89